Time;durP1;ratioP1;P1;durP2;ratioP2;P2;SDS_P1;SDS_P2;PMS_P1;PMS_P2;Temp;Humidity;BMP_temperature;BMP_pressure;BME280_temperature;BME280_humidity;BME280_pressure;Samples;Min_cycle;Max_cycle;Signal;HPM_P1;HPM_P2
2023/04/11 03:37:02;;;;;;;22.30;14.38;;;10.00;99.90;;;;;;6035620;23;20052;-93
2023/04/11 04:07:08;;;;;;;31.95;17.05;;;9.80;99.90;;;;;;4737027;30;20036;-94
2023/04/11 07:11:37;;;;;;;27.92;24.92;;;17.00;99.90;;;;;;4936925;29;20063;-89
2023/04/11 07:14:04;;;;;;;27.90;24.77;;;16.60;99.90;;;;;;4926049;29;20047;-91
2023/04/11 07:16:31;;;;;;;27.10;24.58;;;16.60;99.90;;;;;;4926165;29;20049;-90
2023/04/11 07:19:02;;;;;;;26.15;23.60;;;16.50;99.90;;;;;;4927580;29;20054;-89
2023/04/11 07:21:37;;;;;;;27.83;24.85;;;16.40;99.90;;;;;;4906775;29;20051;-93
2023/04/11 08:53:24;;;;;;;28.60;25.90;;;16.90;99.90;;;;;;5041584;23;20055;-91
2023/04/11 08:56:26;;;;;;;27.98;25.42;;;17.00;99.90;;;;;;4933966;29;20091;-93
2023/04/11 08:59:12;;;;;;;28.42;25.73;;;16.90;99.90;;;;;;4943456;29;20035;-93
2023/04/11 09:02:10;;;;;;;28.15;25.65;;;17.30;99.90;;;;;;4923509;29;20036;-94
2023/04/11 09:05:02;;;;;;;;;;;;;;;;;;;;;
2023/04/11 09:09:08;;;;;;;;;;;;;;;;;;;;;
2023/04/11 09:16:52;;;;;;;28.63;25.77;;;17.40;99.90;;;;;;4941121;29;20055;-95
2023/04/11 09:20:32;;;;;;;27.13;24.80;;;17.30;99.90;;;;;;4884184;29;20037;-92
2023/04/11 09:23:48;;;;;;;27.58;25.20;;;17.20;99.90;;;;;;4882716;29;20372;-96
2023/04/11 09:26:58;;;;;;;27.30;25.15;;;17.40;99.90;;;;;;4874285;29;20044;-96
2023/04/11 09:30:13;;;;;;;28.10;25.25;;;17.50;99.90;;;;;;4897361;29;20160;-94
2023/04/11 09:33:03;;;;;;;27.75;25.27;;;17.20;99.90;;;;;;4862823;29;20041;-94
2023/04/11 09:35:51;;;;;;;27.77;25.17;;;17.40;99.90;;;;;;4863319;29;20439;-93
2023/04/11 09:38:39;;;;;;;27.80;24.98;;;17.40;99.90;;;;;;4863063;29;20051;-94
2023/04/11 09:41:55;;;;;;;26.45;24.25;;;17.20;99.90;;;;;;4863193;29;20128;-93
2023/04/11 09:44:39;;;;;;;27.50;25.02;;;17.20;99.90;;;;;;4862816;29;20052;-93
2023/04/11 09:47:18;;;;;;;26.83;24.63;;;17.30;99.90;;;;;;4863478;29;20046;-95
2023/04/11 10:26:54;;;;;;;26.20;24.10;;;17.00;99.90;;;;;;5465086;23;20131;31
2023/04/11 10:53:42;;;;;;;;;;;;;;;;;;;;;
2023/04/11 10:56:47;;;;;;;25.38;23.38;;;17.50;99.90;;;;;;5212889;23;20109;-92
2023/04/11 10:59:35;;;;;;;26.10;23.73;;;17.50;99.90;;;;;;4956320;28;20113;-92
2023/04/11 11:02:05;;;;;;;25.88;23.55;;;17.00;99.90;;;;;;4958588;28;20039;-93
2023/04/11 11:04:39;;;;;;;24.92;22.88;;;17.30;99.90;;;;;;4934984;28;20027;-92
2023/04/11 11:07:11;;;;;;;25.70;23.13;;;17.50;99.90;;;;;;4945851;28;20035;-92
2023/04/11 11:09:38;;;;;;;25.90;23.80;;;17.20;99.90;;;;;;4943327;28;20050;-93
2023/04/11 11:12:34;;;;;;;25.02;23.15;;;16.80;99.90;;;;;;4906767;29;20058;-93
2023/04/11 11:15:41;;;;;;;24.60;22.80;;;17.20;99.90;;;;;;4902366;29;20123;-93
2023/04/11 11:18:18;;;;;;;24.88;22.83;;;17.80;99.90;;;;;;4865584;29;20266;-93
2023/04/11 11:20:44;;;;;;;25.20;23.00;;;17.90;99.90;;;;;;4863659;29;20215;-92
2023/04/11 11:23:11;;;;;;;24.83;22.67;;;17.30;99.90;;;;;;4861271;29;20056;-92
2023/04/11 11:25:54;;;;;;;24.98;22.83;;;17.10;99.90;;;;;;4846160;29;20072;-92
2023/04/11 11:28:27;;;;;;;25.27;22.90;;;17.20;99.90;;;;;;4863132;29;20063;-94
2023/04/11 11:31:11;;;;;;;25.33;23.00;;;17.80;99.90;;;;;;4872169;29;20143;-94
2023/04/11 11:33:52;;;;;;;24.33;22.50;;;18.30;99.90;;;;;;4879226;29;20285;-95
2023/04/11 11:36:19;;;;;;;25.13;23.10;;;18.30;99.90;;;;;;4863466;29;20049;-92
2023/04/11 11:38:56;;;;;;;24.55;22.70;;;17.90;99.90;;;;;;4922204;23;20401;-94
2023/04/11 11:41:26;;;;;;;25.40;22.88;;;17.70;99.90;;;;;;4904887;29;20078;-92
2023/04/11 11:44:00;;;;;;;24.95;22.67;;;17.50;99.90;;;;;;4908201;29;20044;-93
2023/04/11 11:46:32;;;;;;;24.77;22.98;;;17.20;99.90;;;;;;4908981;29;20088;-92
2023/04/11 11:49:00;;;;;;;26.15;23.90;;;17.20;99.90;;;;;;4985910;23;20055;-91
2023/04/11 11:52:10;;;;;;;25.25;23.27;;;17.40;99.90;;;;;;4954699;23;20047;-93
2023/04/11 11:55:04;;;;;;;26.60;24.25;;;17.90;99.90;;;;;;4943238;29;20035;-94
2023/04/11 11:57:32;;;;;;;26.00;23.70;;;18.00;99.90;;;;;;4943748;29;20039;-91
2023/04/11 12:00:04;;;;;;;25.70;23.25;;;17.40;99.90;;;;;;4958719;29;20573;-93
2023/04/11 12:02:34;;;;;;;24.90;22.83;;;17.20;99.90;;;;;;4958660;28;20094;-90
2023/04/11 12:05:05;;;;;;;25.35;23.13;;;17.50;99.90;;;;;;4943261;29;20031;-90
2023/04/11 12:07:37;;;;;;;25.70;23.60;;;17.90;99.90;;;;;;4958341;29;20034;-90
2023/04/11 12:10:10;;;;;;;24.55;22.77;;;17.30;99.90;;;;;;4958357;29;20031;-91
2023/04/11 12:12:49;;;;;;;25.17;23.10;;;17.00;99.90;;;;;;4958359;28;20031;-91
2023/04/11 12:15:21;;;;;;;25.85;23.48;;;16.70;99.90;;;;;;4942374;29;20374;-91
2023/04/11 12:17:48;;;;;;;25.23;23.08;;;16.80;99.90;;;;;;4958470;29;20023;-90
2023/04/11 12:20:15;;;;;;;25.92;23.80;;;17.20;99.90;;;;;;4942266;29;20032;-90
2023/04/11 12:22:42;;;;;;;25.60;23.58;;;17.50;99.90;;;;;;4958226;28;20156;-92
2023/04/11 12:25:14;;;;;;;25.75;23.30;;;17.70;99.90;;;;;;4942189;29;20023;-90
2023/04/11 12:27:42;;;;;;;25.45;23.23;;;17.80;99.90;;;;;;4958215;29;20086;-90
2023/04/11 12:30:14;;;;;;;25.00;22.80;;;17.50;99.90;;;;;;4943618;29;20114;-91
2023/04/11 12:32:41;;;;;;;24.42;22.52;;;17.10;99.90;;;;;;4958412;28;20070;-91
2023/04/11 12:35:09;;;;;;;24.35;22.45;;;16.70;99.90;;;;;;4926261;29;20031;-93
2023/04/11 12:37:36;;;;;;;25.38;23.30;;;16.80;99.90;;;;;;4926760;29;20039;-93
2023/04/11 12:40:08;;;;;;;25.42;23.40;;;17.00;99.90;;;;;;4926724;29;20047;-93
2023/04/11 12:42:35;;;;;;;25.17;23.00;;;17.00;99.90;;;;;;4941703;29;20113;-90
2023/04/11 12:45:01;;;;;;;25.63;23.73;;;17.20;99.90;;;;;;4941934;29;20038;-93
2023/04/11 12:47:28;;;;;;;25.77;23.75;;;17.20;99.90;;;;;;4926011;29;20499;-91
2023/04/11 12:50:07;;;;;;;26.17;23.98;;;17.50;99.90;;;;;;4927585;29;20428;-91
2023/04/11 12:53:23;;;;;;;26.02;23.90;;;17.50;99.90;;;;;;4943955;28;20080;-93
2023/04/11 12:56:17;;;;;;;26.40;24.08;;;17.20;99.90;;;;;;4942447;29;20054;-92
2023/04/11 12:58:44;;;;;;;25.40;23.50;;;17.00;99.90;;;;;;4863790;29;20045;-94
2023/04/11 13:01:26;;;;;;;25.98;23.80;;;17.00;99.90;;;;;;4850988;29;20045;-91
2023/04/11 13:04:09;;;;;;;25.23;23.20;;;17.00;99.90;;;;;;4851789;29;20049;-93
2023/04/11 13:06:39;;;;;;;27.02;24.80;;;17.40;99.90;;;;;;4850631;29;20029;-91
2023/04/11 13:09:06;;;;;;;26.17;24.17;;;17.20;99.90;;;;;;4852553;29;20064;-93
2023/04/11 13:11:33;;;;;;;25.77;23.60;;;17.30;99.90;;;;;;4851084;29;20594;-94
2023/04/11 13:13:59;;;;;;;26.30;24.23;;;17.20;99.90;;;;;;4850907;29;20029;-93
2023/04/11 13:16:32;;;;;;;26.00;23.90;;;17.30;99.90;;;;;;4854022;29;20081;-93
2023/04/11 13:18:59;;;;;;;25.85;23.77;;;17.40;99.90;;;;;;4851685;29;20025;-92
2023/04/11 13:21:29;;;;;;;25.65;23.45;;;17.10;99.90;;;;;;4850074;29;20075;-92
2023/04/11 13:23:55;;;;;;;25.02;23.20;;;17.20;99.90;;;;;;4850297;29;20471;-92
2023/04/11 13:26:29;;;;;;;26.38;24.13;;;17.30;99.90;;;;;;4850890;29;20085;-92
2023/04/11 13:29:17;;;;;;;26.17;23.98;;;17.30;99.90;;;;;;4847866;29;20481;-93
2023/04/11 13:31:44;;;;;;;25.58;23.38;;;17.20;99.90;;;;;;4849621;29;20025;-93
2023/04/11 13:34:19;;;;;;;25.42;23.35;;;17.00;99.90;;;;;;4849938;29;20037;-93
2023/04/11 13:36:50;;;;;;;25.83;23.63;;;16.90;99.90;;;;;;4934410;29;20122;-92
2023/04/11 15:02:04;;;;;;;22.65;20.95;;;16.60;99.90;;;;;;3534094;23;20244;-89
2023/04/11 15:04:31;;;;;;;22.45;20.88;;;16.50;99.90;;;;;;4915668;29;20417;-93
2023/04/11 15:06:58;;;;;;;21.55;19.92;;;16.50;99.90;;;;;;4901905;29;20028;-91
2023/04/11 15:09:25;;;;;;;21.75;19.88;;;16.40;99.90;;;;;;4901717;29;20039;-91
2023/04/11 15:11:51;;;;;;;24.05;22.05;;;16.30;99.90;;;;;;4901682;29;20036;-90
2023/04/11 15:14:18;;;;;;;22.55;20.95;;;16.30;99.90;;;;;;4886007;29;20024;-91
2023/04/11 15:16:44;;;;;;;24.20;22.02;;;16.30;99.90;;;;;;4886423;29;20497;-91
2023/04/11 15:19:11;;;;;;;23.90;21.85;;;16.40;99.90;;;;;;4885789;29;20032;-91
2023/04/11 15:21:38;;;;;;;22.55;20.95;;;16.50;99.90;;;;;;4885804;29;20032;-92
2023/04/11 15:24:06;;;;;;;22.63;20.80;;;16.70;99.90;;;;;;4885900;29;20044;-91
2023/04/11 15:26:33;;;;;;;22.25;20.55;;;16.80;99.90;;;;;;4885976;29;20028;-92
2023/04/11 15:29:00;;;;;;;22.17;20.27;;;16.90;99.90;;;;;;4886135;29;20485;-92
2023/04/11 15:31:27;;;;;;;22.15;20.42;;;16.60;99.90;;;;;;4883802;29;20512;-89
2023/04/11 15:34:00;;;;;;;22.73;20.70;;;16.50;99.90;;;;;;4885895;29;20489;-93
2023/04/11 15:36:27;;;;;;;22.40;20.80;;;16.60;99.90;;;;;;4886741;29;20363;-92
2023/04/11 15:38:54;;;;;;;23.17;20.90;;;16.70;99.90;;;;;;4885731;29;20038;-90
2023/04/11 15:41:20;;;;;;;22.25;20.67;;;16.80;99.90;;;;;;4885684;29;20032;-90
2023/04/11 15:43:46;;;;;;;23.10;21.05;;;16.90;99.90;;;;;;4885554;29;20040;-90
2023/04/11 15:46:13;;;;;;;23.30;21.35;;;16.90;99.90;;;;;;4885677;29;20434;-90
2023/04/11 15:48:39;;;;;;;25.50;23.40;;;16.90;99.90;;;;;;4886005;29;20039;-92
2023/04/11 15:51:09;;;;;;;22.83;21.05;;;16.80;99.90;;;;;;4885447;29;20028;-92
2023/04/11 15:53:36;;;;;;;23.42;21.63;;;16.80;99.90;;;;;;4885622;29;20060;-91
2023/04/11 15:56:08;;;;;;;22.88;21.17;;;16.50;99.90;;;;;;4885633;29;20481;-92
2023/04/11 15:58:34;;;;;;;22.10;20.45;;;16.30;99.90;;;;;;4885406;29;20083;-91
2023/04/11 16:01:01;;;;;;;22.88;20.95;;;16.30;99.90;;;;;;4885784;29;20040;-92
2023/04/11 16:03:31;;;;;;;22.88;20.80;;;16.00;99.90;;;;;;4898582;29;20048;-91
2023/04/11 16:05:58;;;;;;;22.63;20.55;;;15.90;99.90;;;;;;4900850;29;20048;-90
2023/04/11 16:08:26;;;;;;;23.00;21.05;;;15.80;99.90;;;;;;4901310;29;20036;-89
2023/04/11 16:10:53;;;;;;;22.58;20.75;;;15.80;99.90;;;;;;4901299;29;20040;-91
2023/04/11 16:13:19;;;;;;;23.02;20.98;;;15.80;99.90;;;;;;4901348;29;20032;-90
2023/04/11 16:15:46;;;;;;;22.92;21.13;;;15.80;99.90;;;;;;4900942;29;20111;-93
2023/04/11 16:18:12;;;;;;;22.55;20.77;;;15.80;99.90;;;;;;4917094;29;20065;-90
2023/04/11 16:20:42;;;;;;;22.95;21.25;;;15.70;99.90;;;;;;4901144;29;20028;-91
2023/04/11 16:23:09;;;;;;;23.50;21.48;;;15.60;99.90;;;;;;4900896;29;20043;-91
2023/04/11 16:25:36;;;;;;;23.63;21.42;;;15.60;99.90;;;;;;4901086;29;20398;-92
2023/04/11 16:28:02;;;;;;;22.80;20.98;;;15.50;99.90;;;;;;4901845;29;20039;-93
2023/04/11 16:30:29;;;;;;;21.70;20.27;;;15.50;99.90;;;;;;4916032;29;20029;-95
2023/04/11 16:32:56;;;;;;;23.98;21.88;;;15.40;99.90;;;;;;4916863;29;20042;-91
2023/04/11 16:35:24;;;;;;;23.45;21.45;;;15.40;99.90;;;;;;4916733;29;20116;-92
2023/04/11 16:37:50;;;;;;;23.42;21.63;;;15.30;99.90;;;;;;4916713;29;20035;-93
2023/04/11 16:40:16;;;;;;;23.05;21.30;;;15.20;99.90;;;;;;4916821;29;20029;-93
2023/04/11 16:42:43;;;;;;;22.65;21.05;;;15.20;99.90;;;;;;4916738;29;20040;-94
2023/04/11 16:45:17;;;;;;;22.67;21.00;;;15.10;99.90;;;;;;4917420;29;20029;-92
2023/04/11 16:47:44;;;;;;;21.95;20.45;;;15.00;99.90;;;;;;4916807;29;20067;-94
2023/04/11 16:50:10;;;;;;;24.55;22.42;;;14.90;99.90;;;;;;4916809;29;20496;-94
2023/04/11 16:52:36;;;;;;;24.10;22.08;;;14.80;99.90;;;;;;4916809;29;20074;-94
2023/04/11 16:55:04;;;;;;;24.45;22.33;;;14.80;99.90;;;;;;4917054;29;20056;-94
2023/04/11 16:57:31;;;;;;;22.92;21.05;;;14.60;99.90;;;;;;4917302;29;20042;-95
2023/04/11 16:59:59;;;;;;;22.80;20.73;;;14.60;99.90;;;;;;4916920;29;20031;-93
2023/04/11 17:02:28;;;;;;;26.75;22.05;;;14.50;99.90;;;;;;4916375;29;20132;-94
2023/04/11 17:04:57;;;;;;;24.25;22.25;;;14.50;99.90;;;;;;4916447;29;20040;-95
2023/04/11 17:07:23;;;;;;;23.55;21.42;;;14.40;99.90;;;;;;4917221;29;20419;-93
2023/04/11 17:09:50;;;;;;;24.75;22.58;;;14.40;99.90;;;;;;4917170;29;20032;-93
2023/04/11 17:12:19;;;;;;;22.55;20.75;;;14.30;99.90;;;;;;4915971;29;20036;-93
2023/04/11 17:14:46;;;;;;;23.45;21.20;;;14.30;99.90;;;;;;4917088;29;20039;-95
2023/04/11 17:17:12;;;;;;;23.63;21.63;;;14.20;99.90;;;;;;4916436;29;20053;-94
2023/04/11 17:19:41;;;;;;;24.15;21.88;;;14.10;99.90;;;;;;4916934;29;20036;-96
2023/04/11 17:22:08;;;;;;;24.27;21.88;;;14.00;99.90;;;;;;4901000;29;20041;-94
2023/04/11 17:24:34;;;;;;;22.63;20.40;;;13.90;99.90;;;;;;4927152;29;20032;-94
2023/04/11 17:27:01;;;;;;;23.48;21.42;;;13.90;99.90;;;;;;4900922;29;20025;-94
2023/04/11 17:29:30;;;;;;;23.98;21.50;;;13.80;99.90;;;;;;4901798;29;20028;-94
2023/04/11 17:32:01;;;;;;;23.65;21.55;;;13.70;99.90;;;;;;4900695;29;20056;-92
2023/04/11 17:34:27;;;;;;;23.55;21.55;;;13.70;99.90;;;;;;4900555;29;20065;-94
2023/04/11 17:36:56;;;;;;;23.95;21.95;;;13.60;99.90;;;;;;4900291;29;20489;-93
2023/04/11 17:39:22;;;;;;;24.50;22.10;;;13.60;99.90;;;;;;4899880;29;20040;-92
2023/04/11 17:41:48;;;;;;;24.05;21.92;;;13.50;99.90;;;;;;4899318;29;20029;-94
2023/04/11 17:44:15;;;;;;;25.65;23.42;;;13.40;99.90;;;;;;4899620;29;20028;-94
2023/04/11 17:46:41;;;;;;;25.05;22.63;;;13.40;99.90;;;;;;4899579;29;20092;-93
2023/04/11 17:49:07;;;;;;;26.25;23.42;;;13.40;99.90;;;;;;4899839;29;20496;-92
2023/04/11 17:51:35;;;;;;;24.65;22.20;;;13.40;99.90;;;;;;4899796;29;20028;-94
2023/04/11 17:54:02;;;;;;;25.08;22.90;;;13.30;99.90;;;;;;4899828;29;20036;-94
2023/04/11 17:56:28;;;;;;;33.72;29.67;;;13.30;99.90;;;;;;4900538;29;20443;-92
2023/04/11 17:58:55;;;;;;;28.55;25.52;;;13.30;99.90;;;;;;4900312;29;20085;-95
2023/04/11 18:01:22;;;;;;;29.95;26.67;;;13.20;99.90;;;;;;4900634;29;20033;-91
2023/04/11 18:03:49;;;;;;;29.33;24.95;;;13.20;99.90;;;;;;4900096;29;20053;-92
2023/04/11 18:06:18;;;;;;;26.35;23.67;;;13.20;99.90;;;;;;4895371;29;20059;-94
2023/04/11 18:08:45;;;;;;;26.25;23.35;;;13.30;99.90;;;;;;4901311;29;20056;-93
2023/04/11 18:11:12;;;;;;;25.58;23.13;;;13.20;99.90;;;;;;4899504;29;20052;-93
2023/04/11 18:13:38;;;;;;;26.45;23.83;;;13.10;99.90;;;;;;4899804;29;20059;-94
2023/04/11 18:16:05;;;;;;;27.75;24.00;;;13.10;99.90;;;;;;4899373;29;20119;-92
2023/04/11 18:18:40;;;;;;;26.60;24.05;;;13.00;99.90;;;;;;4901910;29;20598;-94
2023/04/11 18:21:07;;;;;;;25.90;23.50;;;13.00;99.90;;;;;;4902367;29;20078;-93
2023/04/11 18:23:33;;;;;;;28.05;25.17;;;12.90;99.90;;;;;;4902027;29;20040;-94
2023/04/11 18:26:02;;;;;;;28.30;24.45;;;12.90;99.90;;;;;;4902507;29;20032;-93
2023/04/11 18:28:29;;;;;;;26.27;23.70;;;12.90;99.90;;;;;;4902234;29;20111;-94
2023/04/11 18:30:56;;;;;;;27.27;24.70;;;12.90;99.90;;;;;;4918100;23;20405;-95
2023/04/11 18:33:22;;;;;;;30.20;25.90;;;12.90;99.90;;;;;;4936893;29;20031;-94
2023/04/11 18:35:49;;;;;;;28.58;25.25;;;12.80;99.90;;;;;;4937285;29;20051;-93
2023/04/11 18:38:15;;;;;;;35.38;26.02;;;12.80;99.90;;;;;;4921115;29;20473;-94
2023/04/11 18:40:54;;;;;;;34.88;25.77;;;12.80;99.90;;;;;;4921024;29;20040;-94
2023/04/11 19:40:56;;;;;;;29.55;25.80;;;11.80;99.90;;;;;;4989456;23;20109;-93
2023/04/11 19:43:27;;;;;;;31.67;26.45;;;11.70;99.90;;;;;;4962775;28;20054;-93
2023/04/11 19:45:54;;;;;;;30.17;27.05;;;11.60;99.90;;;;;;4945885;28;20031;-92
2023/04/11 19:48:50;;;;;;;32.30;26.83;;;11.60;99.90;;;;;;4958790;28;20026;-93
2023/04/11 19:55:30;;;;;;;;;;;;;;;;;;;;;
2023/04/11 19:58:14;;;;;;;;;;;11.30;99.90;;;;;;5725675;23;20046;-92
2023/04/11 20:00:44;;;;;;;34.38;27.23;;;11.30;99.90;;;;;;4965344;28;19918;-92
2023/04/11 20:03:14;;;;;;;32.55;25.58;;;11.20;99.90;;;;;;4956547;28;20030;-93
2023/04/11 20:09:05;;;;;;;35.65;26.35;;;11.10;99.90;;;;;;4996113;23;20066;-92
2023/04/11 20:20:20;;;;;;;28.40;25.15;;;11.00;99.90;;;;;;5925580;23;20026;-91
2023/04/11 20:27:31;;;;;;;;;;;;;;;;;;;;;
2023/04/11 20:41:18;;;;;;;26.67;21.92;;;10.80;99.90;;;;;;5005656;23;20047;-92
2023/04/11 20:43:48;;;;;;;24.75;21.92;;;10.80;99.90;;;;;;4967457;28;20042;-91
2023/04/11 20:46:23;;;;;;;25.45;22.67;;;10.70;99.90;;;;;;4932958;29;20031;-92
2023/04/11 20:48:54;;;;;;;26.60;22.15;;;10.80;99.90;;;;;;4910712;29;20039;-92
2023/04/11 20:51:23;;;;;;;25.52;22.92;;;10.60;99.90;;;;;;4908019;29;20039;-91
2023/04/11 20:53:54;;;;;;;25.48;22.30;;;10.50;99.90;;;;;;4908213;29;20114;-92
2023/04/11 20:56:24;;;;;;;32.20;22.88;;;10.40;99.90;;;;;;4924676;29;20042;-91
2023/04/11 20:59:01;;;;;;;26.15;21.55;;;10.30;99.90;;;;;;4924648;29;20515;-92
2023/04/11 21:01:53;;;;;;;31.52;22.10;;;10.30;99.90;;;;;;4908655;29;20035;-92
2023/04/11 21:04:23;;;;;;;28.52;21.27;;;10.20;99.90;;;;;;4927039;29;20077;-93
2023/04/11 21:07:01;;;;;;;26.55;19.45;;;10.20;99.90;;;;;;4924570;29;20036;-91
2023/04/11 21:09:46;;;;;;;24.95;19.05;;;10.30;99.90;;;;;;4924563;29;20067;-92
2023/04/11 21:12:17;;;;;;;23.52;19.48;;;10.30;99.90;;;;;;4924676;29;20095;-91
2023/04/11 21:14:49;;;;;;;28.90;19.45;;;10.30;99.90;;;;;;4923947;29;20034;-91
2023/04/11 21:17:25;;;;;;;26.45;19.63;;;10.30;99.90;;;;;;4918524;29;20138;-92
2023/04/11 21:19:55;;;;;;;30.58;19.73;;;10.30;99.90;;;;;;4919164;29;20024;-90
2023/04/11 21:22:22;;;;;;;28.42;19.13;;;10.30;99.90;;;;;;4902550;29;20051;-90
2023/04/11 21:24:49;;;;;;;24.88;18.15;;;10.30;99.90;;;;;;4956470;29;20051;-91
2023/04/11 21:27:16;;;;;;;24.65;18.20;;;10.20;99.90;;;;;;4941328;29;20027;-91
2023/04/11 21:29:44;;;;;;;28.92;19.27;;;10.20;99.90;;;;;;4941312;29;20122;-91
2023/04/11 21:32:11;;;;;;;27.73;19.60;;;10.10;99.90;;;;;;4940968;29;20027;-91
2023/04/11 21:34:38;;;;;;;32.15;19.73;;;10.10;99.90;;;;;;4941251;29;20126;-90
2023/04/11 21:37:10;;;;;;;24.05;17.27;;;10.00;99.90;;;;;;4942124;29;20031;-91
2023/04/11 21:39:37;;;;;;;22.83;17.40;;;9.90;99.90;;;;;;4943629;29;20079;-93
2023/04/11 21:42:03;;;;;;;26.38;17.60;;;9.80;99.90;;;;;;4925365;29;20043;-92
2023/04/11 21:44:36;;;;;;;28.73;16.85;;;9.80;99.90;;;;;;4941209;29;20042;-92
2023/04/11 21:47:05;;;;;;;24.40;17.77;;;9.70;99.90;;;;;;4942148;29;20027;-91
2023/04/11 21:49:32;;;;;;;22.67;16.10;;;9.60;99.90;;;;;;4941533;29;20039;-91
2023/04/11 21:51:59;;;;;;;23.73;17.50;;;9.50;99.90;;;;;;4956584;28;20058;-92
2023/04/11 21:54:25;;;;;;;25.63;17.08;;;9.40;99.90;;;;;;4940644;29;20035;-92
2023/04/11 21:56:52;;;;;;;22.60;17.08;;;9.40;99.90;;;;;;4941242;29;20072;-93
2023/04/11 21:59:20;;;;;;;24.63;16.17;;;9.30;99.90;;;;;;4957015;29;20036;-91
2023/04/11 22:01:49;;;;;;;25.80;17.38;;;9.20;99.90;;;;;;4940969;29;20027;-91
2023/04/11 22:04:16;;;;;;;28.15;17.45;;;9.20;99.90;;;;;;4956632;29;20047;-91
2023/04/11 22:06:45;;;;;;;26.42;17.23;;;9.10;99.90;;;;;;4940621;29;20492;-92
2023/04/11 22:09:19;;;;;;;23.00;16.23;;;9.10;99.90;;;;;;4956521;29;20525;-90
2023/04/11 22:11:46;;;;;;;25.48;16.30;;;9.00;99.90;;;;;;4940190;29;20031;-91
2023/04/11 22:14:15;;;;;;;26.92;16.98;;;9.00;99.90;;;;;;4940386;29;20054;-90
2023/04/11 22:16:47;;;;;;;23.70;16.85;;;9.00;99.90;;;;;;4940897;29;20019;-91
2023/04/11 22:19:19;;;;;;;25.65;16.85;;;8.90;99.90;;;;;;4940178;29;20031;-90
2023/04/11 22:21:54;;;;;;;29.45;16.27;;;8.90;99.90;;;;;;4940243;29;20053;-92
2023/04/11 22:24:29;;;;;;;24.48;15.85;;;8.90;99.90;;;;;;4924668;29;20063;-90
2023/04/11 22:26:57;;;;;;;24.35;15.80;;;8.90;99.90;;;;;;4957026;28;20035;-92
2023/04/11 22:29:29;;;;;;;23.33;15.70;;;8.90;99.90;;;;;;4940325;29;20522;-92
2023/04/11 22:31:58;;;;;;;30.45;15.60;;;9.00;99.90;;;;;;4955649;28;20064;-90
2023/04/11 22:34:25;;;;;;;25.95;15.55;;;9.00;99.90;;;;;;4940169;29;20031;-92
2023/04/11 22:36:52;;;;;;;29.20;17.63;;;9.00;99.90;;;;;;4955964;29;20608;-94
2023/04/11 22:39:20;;;;;;;49.63;26.77;;;9.10;99.90;;;;;;4939565;29;20043;-94
2023/04/11 22:41:51;;;;;;;40.67;24.65;;;9.10;99.90;;;;;;4955588;28;20039;-90
2023/04/11 22:44:18;;;;;;;40.15;22.63;;;9.10;99.90;;;;;;4955584;29;20445;-91
2023/04/11 22:47:02;;;;;;;44.33;23.08;;;9.10;99.90;;;;;;4940267;29;20031;-93
2023/04/11 22:49:31;;;;;;;39.00;22.92;;;9.00;99.90;;;;;;4940827;29;20491;-92
2023/04/11 22:52:13;;;;;;;35.97;20.35;;;8.90;99.90;;;;;;4967164;28;20035;-93
2023/04/11 22:54:41;;;;;;;29.60;16.90;;;8.80;99.90;;;;;;4954552;29;20067;-94
2023/04/11 23:07:48;;;;;;;26.73;15.35;;;8.60;99.90;;;;;;5423546;23;20065;-93
2023/04/11 23:42:49;;;;;;;30.10;16.48;;;7.70;99.90;;;;;;1928170;23;20238;-92
2023/04/11 23:45:21;;;;;;;30.58;16.67;;;7.70;99.90;;;;;;5001260;23;20134;-90
2023/04/11 23:47:48;;;;;;;27.45;16.85;;;7.70;99.90;;;;;;4919806;29;20027;-89
2023/04/11 23:50:18;;;;;;;27.45;16.92;;;7.70;99.90;;;;;;4919879;29;20023;-90
2023/04/11 23:52:45;;;;;;;27.38;16.15;;;7.60;99.90;;;;;;4932646;29;20026;-90
2023/04/11 23:55:13;;;;;;;26.90;16.45;;;7.70;99.90;;;;;;4916845;29;20035;-89
2023/04/11 23:57:39;;;;;;;33.05;18.00;;;7.70;99.90;;;;;;4916710;29;20032;-89
